createdAt,value
2023-05-25T00:00:13.124Z,8.09
2023-05-25T00:01:13.052Z,8.08
2023-05-25T00:02:13.105Z,8.01
2023-05-25T00:03:13.181Z,8.06
2023-05-25T00:04:13.089Z,8.03
2023-05-25T00:05:13.076Z,8.01
2023-05-25T00:06:13.034Z,8.05
2023-05-25T00:07:13.041Z,8.01
2023-05-25T00:08:13.021Z,8.06
2023-05-25T00:09:12.989Z,8.08
2023-05-25T00:10:13.779Z,8.03
2023-05-25T00:11:12.986Z,8.06
2023-05-25T00:12:12.932Z,8.01
2023-05-25T00:13:13.154Z,7.95
2023-05-25T00:14:12.908Z,7.97
2023-05-25T00:15:12.928Z,8.00
2023-05-25T00:16:12.904Z,8.05
2023-05-25T00:17:12.929Z,7.97
2023-05-25T00:18:12.862Z,8.01
2023-05-25T00:19:12.902Z,7.95
2023-05-25T00:20:12.896Z,8.03
2023-05-25T00:21:12.927Z,8.01
2023-05-25T00:22:12.811Z,7.95
2023-05-25T00:23:12.819Z,8.00
2023-05-25T00:24:12.862Z,8.05
2023-05-25T00:25:12.822Z,8.01
2023-05-25T00:26:12.800Z,8.01
2023-05-25T00:27:12.787Z,8.06
2023-05-25T00:28:12.777Z,8.09
2023-05-25T00:29:12.731Z,8.05
2023-05-25T00:30:12.746Z,8.03
2023-05-25T00:31:12.753Z,7.91
2023-05-25T00:32:12.747Z,7.94
2023-05-25T00:33:12.697Z,7.94
2023-05-25T00:34:12.723Z,8.00
2023-05-25T00:35:12.715Z,7.90
2023-05-25T00:36:12.652Z,7.93
2023-05-25T00:37:12.705Z,7.88
2023-05-25T00:38:12.677Z,7.91
2023-05-25T00:39:12.866Z,7.85
2023-05-25T00:40:12.656Z,7.79
2023-05-25T00:41:12.602Z,7.82
2023-05-25T00:42:12.597Z,7.75
2023-05-25T00:43:12.597Z,7.70
2023-05-25T00:44:12.582Z,7.66
2023-05-25T00:45:12.564Z,7.60
2023-05-25T00:46:12.609Z,7.70
2023-05-25T00:47:12.538Z,7.60
2023-05-25T00:48:12.529Z,7.56
2023-05-25T00:49:12.521Z,7.48
2023-05-25T00:50:12.528Z,7.54
2023-05-25T00:51:12.741Z,7.58
2023-05-25T00:52:12.496Z,7.56
2023-05-25T00:53:12.491Z,7.54
2023-05-25T00:54:12.470Z,7.48
2023-05-25T00:55:12.461Z,7.48
2023-05-25T00:56:12.520Z,7.58
2023-05-25T00:57:12.823Z,7.56
2023-05-25T00:58:12.422Z,7.51
2023-05-25T00:59:12.441Z,7.48
2023-05-25T01:00:12.424Z,7.51
2023-05-25T01:01:12.450Z,7.50
2023-05-25T01:02:12.429Z,7.42
2023-05-25T01:03:12.476Z,7.47
2023-05-25T01:04:12.491Z,7.45
2023-05-25T01:05:12.371Z,7.40
2023-05-25T01:06:12.339Z,7.42
2023-05-25T01:07:12.362Z,7.45
2023-05-25T01:08:12.310Z,7.39
2023-05-25T01:09:12.294Z,7.40
2023-05-25T01:10:12.304Z,7.45
2023-05-25T01:11:12.339Z,7.42
2023-05-25T01:12:12.255Z,7.43
2023-05-25T01:13:12.251Z,7.40
2023-05-25T01:14:12.277Z,7.40
2023-05-25T01:15:12.242Z,7.40
2023-05-25T01:16:12.265Z,7.35
2023-05-25T01:17:12.190Z,7.29
2023-05-25T01:18:12.178Z,7.25
2023-05-25T01:19:12.210Z,7.28
2023-05-25T01:20:12.322Z,7.23
2023-05-25T01:21:12.191Z,7.25
2023-05-25T01:22:12.175Z,7.18
2023-05-25T01:23:12.176Z,7.21
2023-05-25T01:24:12.192Z,7.21
2023-05-25T01:25:12.120Z,7.23
2023-05-25T01:26:12.117Z,7.21
2023-05-25T01:27:12.100Z,7.21
2023-05-25T01:28:12.155Z,7.20
2023-05-25T01:29:12.081Z,7.18
2023-05-25T01:30:12.079Z,7.21
2023-05-25T01:31:12.012Z,7.23
2023-05-25T01:32:12.145Z,7.18
2023-05-25T01:33:12.051Z,7.15
2023-05-25T01:34:12.010Z,7.24
2023-05-25T01:35:11.990Z,7.21
2023-05-25T01:36:11.970Z,7.21
2023-05-25T01:37:11.944Z,7.31
2023-05-25T01:38:11.951Z,7.24
2023-05-25T01:39:11.971Z,7.32
2023-05-25T01:40:11.918Z,7.33
2023-05-25T01:41:11.931Z,7.25
2023-05-25T01:42:11.917Z,7.29
2023-05-25T01:43:11.895Z,7.25
2023-05-25T01:44:11.891Z,7.24
2023-05-25T01:45:11.889Z,7.20
2023-05-25T01:46:11.937Z,7.18
2023-05-25T01:47:11.846Z,7.18
2023-05-25T01:48:11.864Z,7.18
2023-05-25T01:49:11.855Z,7.18
2023-05-25T01:50:11.860Z,7.29
2023-05-25T01:51:11.826Z,7.31
2023-05-25T01:52:11.845Z,7.31
2023-05-25T01:53:11.780Z,7.28
2023-05-25T01:54:11.768Z,7.18
2023-05-25T01:55:11.759Z,7.21
2023-05-25T01:56:11.794Z,7.23
2023-05-25T01:57:11.762Z,7.21
2023-05-25T01:58:11.772Z,7.24
2023-05-25T01:59:11.714Z,7.21
2023-05-25T02:00:11.680Z,7.20
2023-05-25T02:01:11.704Z,7.20
2023-05-25T02:02:11.659Z,7.15
2023-05-25T02:03:11.679Z,7.10
2023-05-25T02:04:11.700Z,7.10
2023-05-25T02:05:11.665Z,6.96
2023-05-25T02:06:11.627Z,6.92
2023-05-25T02:07:11.675Z,6.99
2023-05-25T02:08:11.595Z,6.97
2023-05-25T02:09:11.653Z,6.99
2023-05-25T02:10:11.579Z,7.00
2023-05-25T02:11:11.605Z,6.89
2023-05-25T02:12:11.573Z,6.89
2023-05-25T02:13:11.572Z,6.84
2023-05-25T02:14:11.534Z,6.84
2023-05-25T02:15:11.576Z,6.87
2023-05-25T02:16:11.552Z,6.79
2023-05-25T02:17:11.502Z,6.81
2023-05-25T02:18:11.487Z,6.85
2023-05-25T02:19:11.449Z,6.88
2023-05-25T02:20:11.541Z,6.88
2023-05-25T02:21:11.470Z,6.84
2023-05-25T02:22:11.504Z,6.79
2023-05-25T02:23:11.454Z,6.79
2023-05-25T02:24:11.409Z,6.84
2023-05-25T02:25:11.415Z,6.85
2023-05-25T02:26:11.445Z,6.87
2023-05-25T02:27:11.409Z,6.82
2023-05-25T02:28:11.378Z,6.78
2023-05-25T02:29:11.395Z,6.78
2023-05-25T02:30:11.350Z,6.72
2023-05-25T02:31:11.386Z,6.75
2023-05-25T02:32:11.300Z,6.77
2023-05-25T02:33:11.329Z,6.72
2023-05-25T02:34:11.307Z,6.74
2023-05-25T02:35:11.324Z,6.74
2023-05-25T02:36:11.301Z,6.74
2023-05-25T02:37:11.264Z,6.78
2023-05-25T02:38:11.249Z,6.74
2023-05-25T02:39:11.225Z,6.75
2023-05-25T02:40:11.243Z,6.66
2023-05-25T02:41:11.211Z,6.74
2023-05-25T02:42:11.195Z,6.64
2023-05-25T02:43:11.225Z,6.64
2023-05-25T02:44:11.211Z,6.67
2023-05-25T02:45:11.159Z,6.62
2023-05-25T02:46:11.289Z,6.60
2023-05-25T02:47:11.166Z,6.57
2023-05-25T02:48:11.124Z,6.62
2023-05-25T02:49:11.137Z,6.59
2023-05-25T02:50:11.100Z,6.62
2023-05-25T02:51:11.097Z,6.63
2023-05-25T02:52:11.137Z,6.64
2023-05-25T02:53:11.304Z,6.74
2023-05-25T02:54:11.067Z,6.72
2023-05-25T02:55:11.080Z,6.74
2023-05-25T02:56:11.114Z,6.79
2023-05-25T02:57:11.019Z,6.77
2023-05-25T02:58:11.033Z,6.79
2023-05-25T02:59:11.027Z,6.66
2023-05-25T03:00:11.015Z,6.77
2023-05-25T03:01:11.179Z,6.77
2023-05-25T03:02:11.026Z,6.79
2023-05-25T03:03:11.017Z,6.69
2023-05-25T03:04:11.066Z,6.77
2023-05-25T03:05:11.006Z,6.72
2023-05-25T03:06:10.910Z,6.72
2023-05-25T03:07:10.971Z,6.74
2023-05-25T03:08:10.892Z,6.74
2023-05-25T03:09:10.914Z,6.74
2023-05-25T03:10:10.968Z,6.77
2023-05-25T03:11:10.893Z,6.70
2023-05-25T03:12:10.861Z,6.72
2023-05-25T03:13:10.853Z,6.75
2023-05-25T03:14:10.844Z,6.75
2023-05-25T03:15:10.811Z,6.78
2023-05-25T03:16:10.845Z,6.69
2023-05-25T03:17:10.784Z,6.77
2023-05-25T03:18:10.805Z,6.64
2023-05-25T03:19:10.763Z,6.59
2023-05-25T03:20:10.803Z,6.52
2023-05-25T03:21:10.735Z,6.57
2023-05-25T03:22:10.744Z,6.52
2023-05-25T03:23:10.835Z,6.56
2023-05-25T03:24:10.695Z,6.56
2023-05-25T03:25:10.723Z,6.54
2023-05-25T03:26:10.669Z,6.51
2023-05-25T03:27:10.680Z,6.57
2023-05-25T03:28:10.727Z,6.56
2023-05-25T03:29:10.732Z,6.62
2023-05-25T03:30:10.649Z,6.63
2023-05-25T03:31:10.750Z,6.62
2023-05-25T03:32:10.630Z,6.74
2023-05-25T03:33:10.668Z,6.77
2023-05-25T03:34:10.616Z,6.70
2023-05-25T03:35:10.696Z,6.77
2023-05-25T03:36:10.583Z,6.75
2023-05-25T03:37:10.561Z,6.75
2023-05-25T03:38:10.587Z,6.77
2023-05-25T03:39:10.535Z,6.74
2023-05-25T03:40:10.523Z,6.77
2023-05-25T03:41:10.595Z,6.77
2023-05-25T03:42:10.589Z,6.81
2023-05-25T03:43:10.521Z,6.85
2023-05-25T03:44:10.516Z,6.84
2023-05-25T03:45:10.459Z,6.87
2023-05-25T03:46:10.490Z,6.89
2023-05-25T03:47:10.499Z,7.00
2023-05-25T03:48:10.485Z,6.96
2023-05-25T03:49:10.452Z,7.03
2023-05-25T03:50:10.411Z,7.10
2023-05-25T03:51:10.436Z,7.20
2023-05-25T03:52:10.446Z,7.18
2023-05-25T03:53:10.371Z,7.23
2023-05-25T03:54:10.578Z,7.11
2023-05-25T03:55:10.430Z,7.20
2023-05-25T03:56:10.342Z,7.21
2023-05-25T03:57:10.332Z,7.24
2023-05-25T03:58:10.326Z,7.36
2023-05-25T03:59:10.286Z,7.38
2023-05-25T04:00:10.293Z,7.38
2023-05-25T04:01:10.293Z,7.38
2023-05-25T04:02:10.386Z,7.35
2023-05-25T04:03:10.342Z,7.24
2023-05-25T04:04:10.301Z,7.21
2023-05-25T04:05:10.216Z,7.15
2023-05-25T04:06:10.264Z,7.29
2023-05-25T04:07:10.253Z,7.29
2023-05-25T04:08:10.236Z,7.47
2023-05-25T04:09:10.182Z,7.50
2023-05-25T04:10:10.204Z,7.47
2023-05-25T04:11:10.163Z,7.53
2023-05-25T04:12:10.155Z,7.54
2023-05-25T04:13:10.173Z,7.48
2023-05-25T04:14:10.110Z,7.47
2023-05-25T04:15:10.166Z,7.47
2023-05-25T04:16:10.260Z,7.63
2023-05-25T04:17:10.097Z,7.69
2023-05-25T04:18:10.190Z,7.75
2023-05-25T04:19:10.140Z,7.88
2023-05-25T04:20:10.056Z,7.88
2023-05-25T04:21:10.082Z,7.72
2023-05-25T04:22:09.997Z,7.69
2023-05-25T04:23:09.986Z,7.67
2023-05-25T04:24:09.979Z,7.66
2023-05-25T04:25:09.971Z,7.67
2023-05-25T04:26:09.952Z,7.57
2023-05-25T04:27:09.953Z,7.82
2023-05-25T04:28:09.934Z,7.82
2023-05-25T04:29:09.978Z,7.80
2023-05-25T04:30:09.915Z,7.90
2023-05-25T04:31:09.954Z,7.93
2023-05-25T04:32:09.918Z,8.05
2023-05-25T04:33:09.930Z,8.01
2023-05-25T04:34:09.868Z,8.00
2023-05-25T04:35:09.898Z,8.05
2023-05-25T04:36:09.850Z,7.98
2023-05-25T04:37:09.838Z,7.98
2023-05-25T04:38:10.016Z,8.01
2023-05-25T04:39:09.811Z,7.83
2023-05-25T04:40:09.812Z,7.88
2023-05-25T04:41:09.789Z,7.76
2023-05-25T04:42:09.779Z,7.72
2023-05-25T04:43:09.764Z,7.76
2023-05-25T04:44:10.593Z,7.82
2023-05-25T04:45:09.796Z,7.58
2023-05-25T04:46:09.810Z,7.63
2023-05-25T04:47:09.738Z,7.50
2023-05-25T04:48:09.832Z,7.63
2023-05-25T04:49:09.717Z,7.63
2023-05-25T04:50:09.716Z,7.58
2023-05-25T04:51:09.712Z,7.58
2023-05-25T04:52:09.753Z,7.66
2023-05-25T04:53:09.716Z,7.53
2023-05-25T04:54:09.635Z,7.51
2023-05-25T04:55:09.654Z,7.58
2023-05-25T04:56:09.704Z,7.57
2023-05-25T04:57:09.607Z,7.67
2023-05-25T04:58:09.613Z,7.66
2023-05-25T04:59:09.611Z,7.76
2023-05-25T05:00:09.598Z,7.82
2023-05-25T05:01:09.598Z,7.87
2023-05-25T05:02:09.592Z,7.79
2023-05-25T05:03:09.645Z,7.85
2023-05-25T05:04:09.543Z,7.82
2023-05-25T05:05:09.528Z,7.91
2023-05-25T05:06:09.539Z,7.79
2023-05-25T05:07:09.546Z,7.88
2023-05-25T05:08:09.552Z,7.85
2023-05-25T05:09:09.509Z,7.88
2023-05-25T05:10:09.477Z,7.83
2023-05-25T05:11:09.455Z,7.88
2023-05-25T05:12:11.324Z,7.88
2023-05-25T05:13:09.462Z,7.90
2023-05-25T05:14:09.440Z,7.88
2023-05-25T05:15:09.407Z,7.90
2023-05-25T05:16:09.470Z,7.79
2023-05-25T05:17:09.405Z,7.77
2023-05-25T05:18:09.473Z,7.85
2023-05-25T05:19:09.366Z,7.77
2023-05-25T05:20:09.433Z,7.87
2023-05-25T05:21:09.333Z,7.85
2023-05-25T05:22:09.327Z,7.88
2023-05-25T05:23:09.366Z,7.87
2023-05-25T05:24:09.348Z,7.90
2023-05-25T05:25:09.314Z,7.95
2023-05-25T05:26:09.298Z,8.05
2023-05-25T05:27:09.312Z,8.12
2023-05-25T05:28:09.284Z,8.16
2023-05-25T05:29:09.272Z,8.13
2023-05-25T05:30:09.240Z,8.24
2023-05-25T05:31:09.286Z,8.20
2023-05-25T05:32:09.250Z,8.24
2023-05-25T05:33:09.272Z,8.37
2023-05-25T05:34:09.362Z,8.37
2023-05-25T05:35:09.221Z,8.31
2023-05-25T05:36:09.182Z,8.44
2023-05-25T05:37:09.157Z,8.36
2023-05-25T05:38:09.147Z,8.31
2023-05-25T05:39:09.155Z,8.30
2023-05-25T05:40:09.227Z,8.36
2023-05-25T05:41:09.135Z,8.31
2023-05-25T05:42:09.120Z,8.33
2023-05-25T05:43:09.097Z,8.31
2023-05-25T05:44:09.091Z,8.48
2023-05-25T05:45:09.086Z,8.48
2023-05-25T05:46:09.133Z,8.56
2023-05-25T05:47:09.050Z,8.55
2023-05-25T05:48:09.039Z,8.66
2023-05-25T05:49:09.076Z,8.60
2023-05-25T05:50:09.056Z,8.74
2023-05-25T05:51:09.024Z,8.63
2023-05-25T05:52:09.066Z,8.67
2023-05-25T05:53:08.998Z,8.74
2023-05-25T05:54:09.021Z,8.73
2023-05-25T05:55:09.027Z,8.82
2023-05-25T05:56:09.005Z,8.85
2023-05-25T05:57:08.933Z,8.99
2023-05-25T05:58:08.974Z,9.04
2023-05-25T05:59:08.935Z,9.10
2023-05-25T06:00:09.040Z,9.06
2023-05-25T06:01:08.949Z,9.10
2023-05-25T06:02:09.108Z,9.21
2023-05-25T06:03:08.933Z,9.18
2023-05-25T06:04:08.868Z,9.19
2023-05-25T06:05:09.023Z,9.22
2023-05-25T06:06:08.993Z,9.21
2023-05-25T06:07:08.884Z,9.26
2023-05-25T06:08:08.850Z,9.41
2023-05-25T06:09:08.836Z,9.36
2023-05-25T06:10:08.845Z,9.39
2023-05-25T06:11:08.872Z,9.41
2023-05-25T06:12:08.794Z,9.43
2023-05-25T06:13:08.804Z,9.32
2023-05-25T06:14:08.770Z,9.37
2023-05-25T06:15:08.791Z,9.41
2023-05-25T06:16:08.823Z,9.39
2023-05-25T06:17:08.868Z,9.39
2023-05-25T06:18:08.753Z,9.34
2023-05-25T06:19:08.735Z,9.36
2023-05-25T06:20:08.708Z,9.47
2023-05-25T06:21:09.805Z,9.55
2023-05-25T06:22:08.690Z,9.55
2023-05-25T06:23:08.687Z,9.65
2023-05-25T06:24:08.676Z,9.62
2023-05-25T06:25:08.634Z,9.61
2023-05-25T06:26:08.747Z,9.64
2023-05-25T06:27:08.775Z,9.64
2023-05-25T06:28:08.696Z,9.59
2023-05-25T06:29:08.704Z,9.66
2023-05-25T06:30:08.590Z,9.68
2023-05-25T06:31:08.615Z,9.82
2023-05-25T06:32:08.677Z,9.79
2023-05-25T06:33:08.719Z,9.94
2023-05-25T06:34:08.564Z,9.87
2023-05-25T06:35:08.555Z,9.91
2023-05-25T06:36:08.638Z,9.95
2023-05-25T06:37:08.514Z,9.94
2023-05-25T06:38:08.594Z,9.97
2023-05-25T06:39:08.523Z,10.09
2023-05-25T06:40:08.496Z,10.01
2023-05-25T06:41:08.479Z,9.99
2023-05-25T06:42:08.470Z,10.12
2023-05-25T06:43:08.538Z,10.20
2023-05-25T06:44:08.470Z,10.17
2023-05-25T06:45:08.524Z,10.15
2023-05-25T06:46:08.515Z,10.20
2023-05-25T06:47:08.470Z,10.25
2023-05-25T06:48:08.483Z,10.33
2023-05-25T06:49:08.415Z,10.38
2023-05-25T06:50:08.373Z,10.44
2023-05-25T06:51:08.399Z,10.42
2023-05-25T06:52:08.401Z,10.60
2023-05-25T06:53:08.476Z,10.64
2023-05-25T06:54:08.361Z,10.79
2023-05-25T06:55:08.365Z,10.87
2023-05-25T06:56:08.330Z,10.86
2023-05-25T06:57:08.342Z,10.99
2023-05-25T06:58:08.331Z,11.02
2023-05-25T06:59:08.488Z,11.14
2023-05-25T07:00:08.323Z,11.18
2023-05-25T07:01:08.319Z,11.32
2023-05-25T07:02:08.302Z,11.25
2023-05-25T07:03:08.399Z,11.35
2023-05-25T07:04:08.321Z,11.43
2023-05-25T07:05:08.299Z,11.43
2023-05-25T07:06:08.243Z,11.47
2023-05-25T07:07:08.293Z,11.48
2023-05-25T07:08:08.255Z,11.52
2023-05-25T07:09:08.396Z,11.60
2023-05-25T07:10:08.193Z,11.65
2023-05-25T07:11:08.177Z,11.57
2023-05-25T07:12:08.215Z,11.68
2023-05-25T07:13:08.180Z,11.60
2023-05-25T07:14:08.130Z,11.62
2023-05-25T07:15:08.176Z,11.63
2023-05-25T07:16:08.264Z,11.63
2023-05-25T07:17:08.354Z,11.81
2023-05-25T07:18:08.357Z,11.88
2023-05-25T07:19:08.189Z,11.84
2023-05-25T07:20:08.105Z,11.97
2023-05-25T07:21:08.133Z,11.95
2023-05-25T07:22:08.078Z,12.03
2023-05-25T07:23:08.287Z,12.06
2023-05-25T07:24:08.049Z,12.07
2023-05-25T07:25:08.045Z,12.09
2023-05-25T07:26:08.032Z,12.06
2023-05-25T07:27:08.031Z,12.06
2023-05-25T07:28:08.034Z,12.10
2023-05-25T07:29:08.016Z,12.15
2023-05-25T07:30:08.020Z,12.17
2023-05-25T07:31:08.033Z,12.21
2023-05-25T07:32:07.992Z,12.32
2023-05-25T07:33:08.046Z,12.39
2023-05-25T07:34:07.965Z,12.45
2023-05-25T07:35:08.041Z,12.53
2023-05-25T07:36:08.032Z,12.70
2023-05-25T07:37:07.930Z,12.83
2023-05-25T07:38:08.189Z,13.01
2023-05-25T07:39:07.925Z,13.28
2023-05-25T07:40:07.913Z,13.44
2023-05-25T07:41:07.900Z,13.60
2023-05-25T07:42:07.919Z,13.74
2023-05-25T07:43:08.649Z,13.95
2023-05-25T07:44:07.906Z,14.10
2023-05-25T07:45:07.890Z,14.25
2023-05-25T07:46:07.849Z,14.28
2023-05-25T07:47:08.110Z,14.28
2023-05-25T07:48:07.939Z,14.26
2023-05-25T07:49:07.822Z,14.28
2023-05-25T07:50:07.834Z,14.07
2023-05-25T07:51:07.843Z,13.83
2023-05-25T07:52:07.818Z,14.00
2023-05-25T07:53:07.772Z,14.10
2023-05-25T07:54:07.765Z,14.11
2023-05-25T07:55:07.810Z,14.10
2023-05-25T07:56:10.452Z,14.05
2023-05-25T07:57:07.741Z,14.17
2023-05-25T07:58:07.760Z,14.35
2023-05-25T07:59:07.736Z,14.40
2023-05-25T08:00:07.733Z,14.50
2023-05-25T08:01:07.756Z,14.55
2023-05-25T08:02:07.813Z,14.69
2023-05-25T08:03:07.998Z,14.79
2023-05-25T08:04:07.845Z,14.92
2023-05-25T08:05:07.809Z,14.96
2023-05-25T08:06:07.673Z,14.85
2023-05-25T08:07:07.673Z,14.58
2023-05-25T08:08:07.664Z,14.41
2023-05-25T08:09:07.703Z,14.43
2023-05-25T08:10:07.700Z,14.45
2023-05-25T08:11:07.699Z,14.51
2023-05-25T08:12:30.566Z,14.65
2023-05-25T08:13:07.660Z,14.62
2023-05-25T08:14:07.639Z,14.63
2023-05-25T08:15:07.650Z,14.60
2023-05-25T08:16:07.630Z,14.59
2023-05-25T08:17:07.643Z,14.62
2023-05-25T08:18:07.620Z,14.60
2023-05-25T08:19:07.639Z,14.55
2023-05-25T08:20:07.662Z,14.54
2023-05-25T08:21:07.603Z,14.43
2023-05-25T08:22:07.616Z,14.47
2023-05-25T08:23:07.567Z,14.25
2023-05-25T08:24:07.570Z,14.18
2023-05-25T08:25:07.554Z,14.18
2023-05-25T08:26:20.304Z,14.37
2023-05-25T08:27:07.546Z,14.36
2023-05-25T08:28:07.586Z,14.44
2023-05-25T08:29:07.567Z,14.47
2023-05-25T08:30:07.515Z,14.45
2023-05-25T08:31:07.504Z,14.47
2023-05-25T08:32:07.483Z,14.37
2023-05-25T08:33:07.505Z,14.28
2023-05-25T08:34:07.485Z,14.12
2023-05-25T08:35:07.489Z,14.03
2023-05-25T08:36:07.448Z,13.96
2023-05-25T08:37:07.477Z,13.97
2023-05-25T08:38:07.464Z,14.07
2023-05-25T08:39:07.450Z,14.12
2023-05-25T08:40:07.433Z,14.32
2023-05-25T08:41:07.431Z,14.43
2023-05-25T08:42:07.437Z,14.59
2023-05-25T08:43:07.414Z,14.65
2023-05-25T08:44:07.429Z,14.78
2023-05-25T08:45:07.419Z,14.88
2023-05-25T08:46:07.399Z,14.91
2023-05-25T08:47:07.389Z,14.66
2023-05-25T08:48:07.465Z,14.81
2023-05-25T08:49:07.448Z,14.89
2023-05-25T08:50:07.397Z,14.91
2023-05-25T08:51:10.164Z,14.96
2023-05-25T08:52:07.367Z,14.79
2023-05-25T08:53:07.386Z,14.78
2023-05-25T08:54:07.358Z,14.73
2023-05-25T08:55:07.310Z,14.65
2023-05-25T08:56:07.351Z,14.68
2023-05-25T08:57:07.339Z,14.48
2023-05-25T08:58:07.294Z,14.58
2023-05-25T08:59:07.306Z,14.59
2023-05-25T09:00:07.523Z,14.68
2023-05-25T09:01:07.260Z,14.85
2023-05-25T09:02:07.400Z,14.92
2023-05-25T09:03:07.485Z,14.86
2023-05-25T09:04:07.325Z,14.89
2023-05-25T09:05:07.318Z,14.99
2023-05-25T09:06:07.265Z,15.02
2023-05-25T09:07:10.809Z,14.91
2023-05-25T09:08:07.256Z,14.89
2023-05-25T09:09:07.258Z,15.07
2023-05-25T09:10:07.269Z,15.02
2023-05-25T09:11:07.731Z,15.09
2023-05-25T09:12:07.257Z,15.10
2023-05-25T09:13:20.312Z,15.10
2023-05-25T09:14:07.207Z,15.04
2023-05-25T09:15:07.194Z,15.15
2023-05-25T09:16:07.232Z,15.21
2023-05-25T09:17:07.209Z,15.37
2023-05-25T09:18:07.227Z,15.67
2023-05-25T09:19:07.162Z,16.01
2023-05-25T09:20:07.195Z,16.26
2023-05-25T09:21:07.157Z,16.29
2023-05-25T09:22:15.634Z,16.24
2023-05-25T09:23:07.270Z,16.23
2023-05-25T09:24:07.167Z,16.20
2023-05-25T09:25:07.142Z,16.49
2023-05-25T09:26:07.102Z,16.71
2023-05-25T09:27:07.180Z,16.69
2023-05-25T09:28:24.715Z,16.86
2023-05-25T09:29:07.195Z,16.91
2023-05-25T09:30:07.338Z,17.05
2023-05-25T09:31:07.223Z,17.39
2023-05-25T09:32:07.635Z,17.72
2023-05-25T09:33:07.142Z,17.87
2023-05-25T09:34:07.048Z,18.10
2023-05-25T09:35:07.070Z,18.05
2023-05-25T09:36:07.069Z,17.52
2023-05-25T09:37:07.205Z,17.11
2023-05-25T09:38:07.245Z,17.05
2023-05-25T09:39:07.277Z,17.08
2023-05-25T09:40:07.051Z,17.12
2023-05-25T09:41:07.111Z,16.89
2023-05-25T09:42:07.083Z,16.90
2023-05-25T09:43:06.998Z,16.79
2023-05-25T09:44:11.512Z,16.72
2023-05-25T09:45:07.016Z,16.51
2023-05-25T09:46:07.128Z,16.41
2023-05-25T09:47:06.967Z,16.28
2023-05-25T09:48:07.116Z,16.00
2023-05-25T09:49:06.987Z,15.92
2023-05-25T09:50:07.043Z,15.79
2023-05-25T09:51:07.097Z,15.82
2023-05-25T09:52:06.967Z,15.97
2023-05-25T09:53:06.954Z,16.17
2023-05-25T09:54:06.945Z,16.35
2023-05-25T09:55:07.001Z,16.42
2023-05-25T09:56:07.025Z,16.68
2023-05-25T09:57:06.996Z,16.60
2023-05-25T09:58:06.924Z,16.86
2023-05-25T09:59:06.941Z,16.94
2023-05-25T10:00:06.910Z,17.24
2023-05-25T10:01:06.903Z,17.64
2023-05-25T10:02:06.987Z,17.92
2023-05-25T10:03:06.888Z,18.11
2023-05-25T10:04:06.874Z,18.25
2023-05-25T10:05:07.036Z,18.20
2023-05-25T10:06:06.873Z,18.00
2023-05-25T10:07:06.888Z,17.86
2023-05-25T10:08:06.840Z,17.85
2023-05-25T10:09:06.889Z,17.85
2023-05-25T10:10:06.850Z,17.92
2023-05-25T10:11:06.838Z,17.85
2023-05-25T10:12:06.821Z,18.10
2023-05-25T10:13:06.850Z,17.97
2023-05-25T10:14:06.830Z,18.22
2023-05-25T10:15:06.794Z,18.00
2023-05-25T10:16:06.960Z,18.00
2023-05-25T10:17:06.824Z,18.11
2023-05-25T10:18:06.829Z,18.22
2023-05-25T10:19:06.775Z,18.53
2023-05-25T10:20:06.828Z,18.59
2023-05-25T10:21:06.864Z,18.40
2023-05-25T10:22:06.813Z,18.52
2023-05-25T10:23:06.791Z,18.60
2023-05-25T10:24:06.827Z,18.49
2023-05-25T10:25:06.859Z,18.37
2023-05-25T10:26:06.748Z,18.33
2023-05-25T10:27:18.397Z,18.25
2023-05-25T10:28:06.738Z,18.00
2023-05-25T10:29:06.795Z,17.78
2023-05-25T10:30:06.723Z,17.85
2023-05-25T10:31:06.781Z,17.86
2023-05-25T10:32:06.740Z,17.89
2023-05-25T10:33:06.782Z,17.65
2023-05-25T10:34:06.721Z,17.74
2023-05-25T10:35:06.715Z,17.92
2023-05-25T10:36:10.618Z,17.83
2023-05-25T10:37:06.766Z,17.85
2023-05-25T10:38:06.697Z,17.97
2023-05-25T10:39:07.177Z,18.05
2023-05-25T10:40:06.718Z,18.11
2023-05-25T10:41:06.676Z,17.92
2023-05-25T10:42:06.669Z,17.87
2023-05-25T10:43:06.803Z,17.57
2023-05-25T10:44:06.670Z,17.60
2023-05-25T10:45:06.687Z,17.70
2023-05-25T10:46:06.694Z,17.76
2023-05-25T10:47:06.708Z,17.85
2023-05-25T10:48:06.698Z,17.87
2023-05-25T10:49:06.744Z,17.78
2023-05-25T10:50:06.855Z,17.85
2023-05-25T10:51:07.733Z,18.04
2023-05-25T10:52:06.706Z,18.07
2023-05-25T10:53:06.660Z,18.19
2023-05-25T10:54:06.732Z,18.25
2023-05-25T10:55:06.589Z,18.13
2023-05-25T10:56:06.605Z,18.15
2023-05-25T10:57:06.609Z,18.04
2023-05-25T10:58:06.602Z,17.95
2023-05-25T10:59:06.590Z,18.00
2023-05-25T11:00:06.901Z,17.87
2023-05-25T11:01:06.725Z,17.68
2023-05-25T11:02:06.955Z,17.71
2023-05-25T11:03:06.617Z,17.63
2023-05-25T11:04:06.598Z,17.92
2023-05-25T11:05:06.557Z,18.03
2023-05-25T11:06:06.528Z,18.01
2023-05-25T11:07:06.509Z,18.22
2023-05-25T11:08:08.541Z,18.40
2023-05-25T11:09:06.507Z,18.55
2023-05-25T11:10:06.529Z,18.41
2023-05-25T11:11:06.507Z,18.03
2023-05-25T11:12:06.541Z,17.80
2023-05-25T11:13:06.495Z,18.11
2023-05-25T11:14:06.685Z,17.97
2023-05-25T11:15:06.480Z,17.82
2023-05-25T11:16:06.450Z,17.95
2023-05-25T11:17:06.556Z,18.10
2023-05-25T11:18:06.525Z,18.16
2023-05-25T11:19:06.475Z,18.10
2023-05-25T11:20:06.581Z,18.10
2023-05-25T11:21:06.462Z,18.08
2023-05-25T11:22:07.303Z,18.19
2023-05-25T11:23:06.467Z,18.15
2023-05-25T11:24:06.442Z,18.18
2023-05-25T11:25:06.462Z,18.18
2023-05-25T11:26:06.431Z,18.19
2023-05-25T11:27:06.402Z,18.28
2023-05-25T11:28:06.433Z,18.56
2023-05-25T11:29:06.403Z,18.74
2023-05-25T11:30:06.384Z,19.02
2023-05-25T11:31:06.695Z,19.33
2023-05-25T11:32:06.393Z,19.56
2023-05-25T11:33:06.464Z,19.73
2023-05-25T11:34:06.368Z,19.86
2023-05-25T11:35:06.359Z,20.09
2023-05-25T11:36:06.380Z,20.14
2023-05-25T11:37:06.364Z,20.18
2023-05-25T11:38:06.359Z,20.13
2023-05-25T11:39:11.712Z,19.86
2023-05-25T11:40:06.327Z,19.56
2023-05-25T11:41:06.307Z,19.11
2023-05-25T11:42:06.328Z,18.86
2023-05-25T11:43:06.375Z,18.73
2023-05-25T11:44:06.328Z,18.47
2023-05-25T11:45:06.319Z,18.33
2023-05-25T11:46:06.362Z,18.25
2023-05-25T11:47:06.418Z,18.31
2023-05-25T11:48:06.387Z,18.44
2023-05-25T11:49:06.402Z,18.62
2023-05-25T11:50:06.273Z,18.62
2023-05-25T11:51:06.299Z,18.62
2023-05-25T11:52:06.257Z,18.92
2023-05-25T11:53:06.286Z,19.16
2023-05-25T11:54:06.319Z,19.22
2023-05-25T11:55:06.248Z,19.51
2023-05-25T11:56:08.386Z,19.64
2023-05-25T11:57:06.248Z,19.82
2023-05-25T11:58:06.331Z,19.66
2023-05-25T11:59:06.373Z,19.39
2023-05-25T12:00:06.209Z,19.36
2023-05-25T12:01:06.233Z,19.36
2023-05-25T12:02:06.200Z,19.66
2023-05-25T12:03:06.363Z,19.89
2023-05-25T12:04:06.327Z,19.69
2023-05-25T12:05:06.876Z,19.77
2023-05-25T12:06:06.208Z,19.74
2023-05-25T12:07:06.184Z,19.84
2023-05-25T12:08:06.230Z,19.92
2023-05-25T12:09:06.162Z,20.09
2023-05-25T12:10:06.173Z,20.18
2023-05-25T12:11:06.196Z,20.10
2023-05-25T12:12:06.177Z,20.02
2023-05-25T12:13:06.190Z,19.82
2023-05-25T12:14:06.160Z,19.86
2023-05-25T12:15:06.177Z,20.00
2023-05-25T12:16:06.151Z,19.96
2023-05-25T12:17:06.152Z,20.18
2023-05-25T12:18:06.258Z,20.24
2023-05-25T12:19:06.163Z,20.37
2023-05-25T12:20:06.153Z,20.58
2023-05-25T12:21:06.130Z,20.78
2023-05-25T12:23:27.280Z,20.60
2023-05-25T12:24:27.253Z,20.36
2023-05-25T12:25:32.816Z,20.41
2023-05-25T12:26:27.260Z,20.52
2023-05-25T12:27:27.226Z,20.80
2023-05-25T12:28:27.253Z,20.84
2023-05-25T12:29:27.228Z,21.07
2023-05-25T12:30:27.252Z,21.27
2023-05-25T12:31:27.271Z,21.33
2023-05-25T12:32:27.234Z,21.46
2023-05-25T12:33:27.245Z,21.64
2023-05-25T12:34:27.219Z,21.51
2023-05-25T12:35:27.212Z,21.37
2023-05-25T12:36:27.197Z,21.12
2023-05-25T12:38:10.063Z,20.63
2023-05-25T12:39:09.617Z,20.58
2023-05-25T12:40:09.568Z,20.36
2023-05-25T12:41:09.572Z,20.11
2023-05-25T12:42:09.553Z,19.86
2023-05-25T12:43:09.536Z,19.91
2023-05-25T12:44:09.575Z,19.99
2023-05-25T12:45:09.551Z,20.09
2023-05-25T12:46:09.570Z,20.36
2023-05-25T12:47:09.528Z,20.40
2023-05-25T12:48:09.535Z,20.40
2023-05-25T12:49:09.707Z,20.43
2023-05-25T12:50:09.563Z,20.28
2023-05-25T12:51:09.541Z,20.11
2023-05-25T12:52:09.614Z,20.06
2023-05-25T12:53:09.500Z,20.03
2023-05-25T12:54:09.508Z,20.10
2023-05-25T12:55:09.481Z,20.04
2023-05-25T12:56:09.497Z,20.31
2023-05-25T12:57:09.478Z,20.39
2023-05-25T12:58:09.476Z,20.41
2023-05-25T12:59:09.485Z,20.28
2023-05-25T13:00:09.466Z,20.44
2023-05-25T13:01:09.462Z,20.58
2023-05-25T13:02:09.526Z,20.60
2023-05-25T13:03:09.572Z,20.70
2023-05-25T13:05:09.477Z,20.87
2023-05-25T13:06:09.441Z,20.92
2023-05-25T13:07:09.507Z,20.78
2023-05-25T13:08:09.526Z,20.82